sensor_id;sensor_type;location;lat;lon;timestamp;temperature;humidity
74364;DHT22;62797;49.740;10.154;2022-12-20T00:01:40;-0.70;67.00
74364;DHT22;62797;49.740;10.154;2022-12-20T00:04:05;-0.70;66.90
74364;DHT22;62797;49.740;10.154;2022-12-20T00:06:33;-0.70;66.70
74364;DHT22;62797;49.740;10.154;2022-12-20T00:09:01;-0.70;66.90
74364;DHT22;62797;49.740;10.154;2022-12-20T00:11:27;-0.60;66.70
74364;DHT22;62797;49.740;10.154;2022-12-20T00:13:53;-0.60;66.30
74364;DHT22;62797;49.740;10.154;2022-12-20T00:16:21;-0.50;65.90
74364;DHT22;62797;49.740;10.154;2022-12-20T00:18:51;-0.50;66.30
74364;DHT22;62797;49.740;10.154;2022-12-20T00:21:17;-0.50;66.20
74364;DHT22;62797;49.740;10.154;2022-12-20T00:23:43;-0.40;65.80
74364;DHT22;62797;49.740;10.154;2022-12-20T00:26:13;-0.40;65.90
74364;DHT22;62797;49.740;10.154;2022-12-20T00:28:40;-0.40;65.80
74364;DHT22;62797;49.740;10.154;2022-12-20T00:31:07;-0.40;65.80
74364;DHT22;62797;49.740;10.154;2022-12-20T00:33:34;-0.40;66.50
74364;DHT22;62797;49.740;10.154;2022-12-20T00:36:00;-0.40;66.50
74364;DHT22;62797;49.740;10.154;2022-12-20T00:38:26;-0.30;66.60
74364;DHT22;62797;49.740;10.154;2022-12-20T00:41:10;-0.30;67.30
74364;DHT22;62797;49.740;10.154;2022-12-20T00:43:36;-0.30;66.70
74364;DHT22;62797;49.740;10.154;2022-12-20T00:46:03;-0.30;67.50
74364;DHT22;62797;49.740;10.154;2022-12-20T00:48:29;-0.30;67.60
74364;DHT22;62797;49.740;10.154;2022-12-20T00:50:59;-0.30;67.70
74364;DHT22;62797;49.740;10.154;2022-12-20T00:53:25;-0.20;67.20
74364;DHT22;62797;49.740;10.154;2022-12-20T00:55:50;-0.20;67.40
74364;DHT22;62797;49.740;10.154;2022-12-20T00:58:16;-0.20;68.50
74364;DHT22;62797;49.740;10.154;2022-12-20T01:00:41;-0.20;68.40
74364;DHT22;62797;49.740;10.154;2022-12-20T01:03:07;-0.30;67.80
74364;DHT22;62797;49.740;10.154;2022-12-20T01:05:33;-0.30;68.90
74364;DHT22;62797;49.740;10.154;2022-12-20T01:07:59;-0.20;68.80
74364;DHT22;62797;49.740;10.154;2022-12-20T01:10:25;-0.20;68.50
74364;DHT22;62797;49.740;10.154;2022-12-20T01:12:50;-0.20;68.50
74364;DHT22;62797;49.740;10.154;2022-12-20T01:15:16;-0.20;68.50
74364;DHT22;62797;49.740;10.154;2022-12-20T01:17:42;-0.20;68.00
74364;DHT22;62797;49.740;10.154;2022-12-20T01:20:08;-0.20;68.20
74364;DHT22;62797;49.740;10.154;2022-12-20T01:22:34;-0.20;68.20
74364;DHT22;62797;49.740;10.154;2022-12-20T01:24:59;-0.10;68.90
74364;DHT22;62797;49.740;10.154;2022-12-20T01:27:25;-0.10;69.80
74364;DHT22;62797;49.740;10.154;2022-12-20T01:29:51;-0.10;69.70
74364;DHT22;62797;49.740;10.154;2022-12-20T01:32:16;0.00;70.10
74364;DHT22;62797;49.740;10.154;2022-12-20T01:34:42;0.00;70.80
74364;DHT22;62797;49.740;10.154;2022-12-20T01:37:07;0.00;71.20
74364;DHT22;62797;49.740;10.154;2022-12-20T01:39:33;0.00;71.00
74364;DHT22;62797;49.740;10.154;2022-12-20T01:41:59;0.00;70.80
74364;DHT22;62797;49.740;10.154;2022-12-20T01:46:50;0.00;71.20
74364;DHT22;62797;49.740;10.154;2022-12-20T01:49:31;0.00;71.40
74364;DHT22;62797;49.740;10.154;2022-12-20T01:52:22;0.00;72.10
74364;DHT22;62797;49.740;10.154;2022-12-20T01:54:52;0.10;72.10
74364;DHT22;62797;49.740;10.154;2022-12-20T01:57:24;0.10;73.60
74364;DHT22;62797;49.740;10.154;2022-12-20T01:59:51;0.10;72.80
74364;DHT22;62797;49.740;10.154;2022-12-20T02:02:19;0.10;73.00
74364;DHT22;62797;49.740;10.154;2022-12-20T02:04:44;0.10;72.50
74364;DHT22;62797;49.740;10.154;2022-12-20T02:07:14;0.10;72.50
74364;DHT22;62797;49.740;10.154;2022-12-20T02:09:41;0.10;72.70
74364;DHT22;62797;49.740;10.154;2022-12-20T02:12:10;0.10;72.80
74364;DHT22;62797;49.740;10.154;2022-12-20T02:20:11;0.20;72.10
74364;DHT22;62797;49.740;10.154;2022-12-20T02:31:26;0.00;73.20
74364;DHT22;62797;49.740;10.154;2022-12-20T02:33:54;0.00;73.20
74364;DHT22;62797;49.740;10.154;2022-12-20T02:36:22;0.10;74.10
74364;DHT22;62797;49.740;10.154;2022-12-20T02:38:47;0.10;74.90
74364;DHT22;62797;49.740;10.154;2022-12-20T02:41:21;0.20;74.90
74364;DHT22;62797;49.740;10.154;2022-12-20T02:43:54;0.30;75.20
74364;DHT22;62797;49.740;10.154;2022-12-20T02:46:40;0.40;74.70
74364;DHT22;62797;49.740;10.154;2022-12-20T02:49:11;0.40;74.60
74364;DHT22;62797;49.740;10.154;2022-12-20T02:51:39;0.40;74.50
74364;DHT22;62797;49.740;10.154;2022-12-20T02:54:06;0.50;74.30
74364;DHT22;62797;49.740;10.154;2022-12-20T02:56:40;0.50;73.90
74364;DHT22;62797;49.740;10.154;2022-12-20T02:59:13;0.50;73.20
74364;DHT22;62797;49.740;10.154;2022-12-20T03:01:46;0.50;73.70
74364;DHT22;62797;49.740;10.154;2022-12-20T03:04:13;0.50;73.40
74364;DHT22;62797;49.740;10.154;2022-12-20T03:07:01;0.50;73.80
74364;DHT22;62797;49.740;10.154;2022-12-20T03:09:29;0.60;73.60
74364;DHT22;62797;49.740;10.154;2022-12-20T03:11:55;0.50;73.80
74364;DHT22;62797;49.740;10.154;2022-12-20T03:14:20;0.50;73.80
74364;DHT22;62797;49.740;10.154;2022-12-20T03:16:46;0.60;74.10
74364;DHT22;62797;49.740;10.154;2022-12-20T03:19:12;0.60;73.80
74364;DHT22;62797;49.740;10.154;2022-12-20T03:21:38;0.60;73.40
74364;DHT22;62797;49.740;10.154;2022-12-20T03:24:03;0.60;74.00
74364;DHT22;62797;49.740;10.154;2022-12-20T03:26:29;0.60;74.80
74364;DHT22;62797;49.740;10.154;2022-12-20T03:28:54;0.60;74.90
74364;DHT22;62797;49.740;10.154;2022-12-20T03:31:20;0.60;75.50
74364;DHT22;62797;49.740;10.154;2022-12-20T03:33:46;0.60;75.80
74364;DHT22;62797;49.740;10.154;2022-12-20T03:36:11;0.60;76.10
74364;DHT22;62797;49.740;10.154;2022-12-20T03:38:37;0.70;76.10
74364;DHT22;62797;49.740;10.154;2022-12-20T03:41:02;0.60;75.70
74364;DHT22;62797;49.740;10.154;2022-12-20T03:43:28;0.70;75.80
74364;DHT22;62797;49.740;10.154;2022-12-20T03:45:53;0.70;75.60
74364;DHT22;62797;49.740;10.154;2022-12-20T03:48:19;0.70;76.00
74364;DHT22;62797;49.740;10.154;2022-12-20T03:50:44;0.70;75.90
74364;DHT22;62797;49.740;10.154;2022-12-20T03:53:10;0.60;76.20
74364;DHT22;62797;49.740;10.154;2022-12-20T03:55:35;0.60;76.20
74364;DHT22;62797;49.740;10.154;2022-12-20T03:58:01;0.70;76.00
74364;DHT22;62797;49.740;10.154;2022-12-20T04:00:27;0.60;76.20
74364;DHT22;62797;49.740;10.154;2022-12-20T04:02:52;0.60;76.00
74364;DHT22;62797;49.740;10.154;2022-12-20T04:05:18;0.60;75.90
74364;DHT22;62797;49.740;10.154;2022-12-20T04:07:44;0.60;75.90
74364;DHT22;62797;49.740;10.154;2022-12-20T04:10:10;0.60;75.30
74364;DHT22;62797;49.740;10.154;2022-12-20T04:12:39;0.50;75.90
74364;DHT22;62797;49.740;10.154;2022-12-20T04:15:05;0.50;76.70
74364;DHT22;62797;49.740;10.154;2022-12-20T04:17:30;0.60;76.90
74364;DHT22;62797;49.740;10.154;2022-12-20T04:19:56;0.60;76.70
74364;DHT22;62797;49.740;10.154;2022-12-20T04:22:21;0.60;77.20
74364;DHT22;62797;49.740;10.154;2022-12-20T04:24:47;0.60;77.40
74364;DHT22;62797;49.740;10.154;2022-12-20T04:27:13;0.60;77.20
74364;DHT22;62797;49.740;10.154;2022-12-20T04:29:38;0.60;76.70
74364;DHT22;62797;49.740;10.154;2022-12-20T04:32:04;0.60;76.20
74364;DHT22;62797;49.740;10.154;2022-12-20T04:34:29;0.60;76.70
74364;DHT22;62797;49.740;10.154;2022-12-20T04:36:55;0.60;76.80
74364;DHT22;62797;49.740;10.154;2022-12-20T04:39:20;0.60;76.90
74364;DHT22;62797;49.740;10.154;2022-12-20T04:41:46;0.60;77.10
74364;DHT22;62797;49.740;10.154;2022-12-20T04:44:12;0.70;77.20
74364;DHT22;62797;49.740;10.154;2022-12-20T04:46:37;0.60;76.70
74364;DHT22;62797;49.740;10.154;2022-12-20T04:49:03;0.60;77.30
74364;DHT22;62797;49.740;10.154;2022-12-20T04:51:28;0.60;77.50
74364;DHT22;62797;49.740;10.154;2022-12-20T04:53:54;0.60;77.60
74364;DHT22;62797;49.740;10.154;2022-12-20T04:56:25;0.60;77.50
74364;DHT22;62797;49.740;10.154;2022-12-20T04:58:53;0.70;77.60
74364;DHT22;62797;49.740;10.154;2022-12-20T05:01:20;0.70;77.10
74364;DHT22;62797;49.740;10.154;2022-12-20T05:03:46;0.60;77.00
74364;DHT22;62797;49.740;10.154;2022-12-20T05:06:13;0.70;77.50
74364;DHT22;62797;49.740;10.154;2022-12-20T05:08:40;0.70;77.10
74364;DHT22;62797;49.740;10.154;2022-12-20T05:11:06;0.70;77.50
74364;DHT22;62797;49.740;10.154;2022-12-20T05:13:33;0.70;77.20
74364;DHT22;62797;49.740;10.154;2022-12-20T05:15:58;0.70;77.40
74364;DHT22;62797;49.740;10.154;2022-12-20T05:18:25;0.70;77.20
74364;DHT22;62797;49.740;10.154;2022-12-20T05:20:54;0.70;77.00
74364;DHT22;62797;49.740;10.154;2022-12-20T05:23:40;0.70;77.00
74364;DHT22;62797;49.740;10.154;2022-12-20T05:26:25;0.60;76.80
74364;DHT22;62797;49.740;10.154;2022-12-20T05:28:51;0.60;77.10
74364;DHT22;62797;49.740;10.154;2022-12-20T05:31:17;0.60;77.50
74364;DHT22;62797;49.740;10.154;2022-12-20T05:33:42;0.60;77.20
74364;DHT22;62797;49.740;10.154;2022-12-20T05:36:08;0.60;77.20
74364;DHT22;62797;49.740;10.154;2022-12-20T05:38:33;0.60;77.30
74364;DHT22;62797;49.740;10.154;2022-12-20T05:40:59;0.60;77.40
74364;DHT22;62797;49.740;10.154;2022-12-20T05:43:25;0.60;77.30
74364;DHT22;62797;49.740;10.154;2022-12-20T05:45:52;0.60;77.10
74364;DHT22;62797;49.740;10.154;2022-12-20T05:48:18;0.60;77.00
74364;DHT22;62797;49.740;10.154;2022-12-20T05:50:45;0.60;77.20
74364;DHT22;62797;49.740;10.154;2022-12-20T05:53:11;0.60;77.30
74364;DHT22;62797;49.740;10.154;2022-12-20T05:55:37;0.60;77.00
74364;DHT22;62797;49.740;10.154;2022-12-20T05:58:05;0.50;77.30
74364;DHT22;62797;49.740;10.154;2022-12-20T06:00:30;0.50;77.40
74364;DHT22;62797;49.740;10.154;2022-12-20T06:02:56;0.60;77.50
74364;DHT22;62797;49.740;10.154;2022-12-20T06:05:21;0.60;77.70
74364;DHT22;62797;49.740;10.154;2022-12-20T06:07:47;0.60;77.70
74364;DHT22;62797;49.740;10.154;2022-12-20T06:10:13;0.70;77.60
74364;DHT22;62797;49.740;10.154;2022-12-20T06:12:38;0.70;77.40
74364;DHT22;62797;49.740;10.154;2022-12-20T06:15:04;0.70;77.80
74364;DHT22;62797;49.740;10.154;2022-12-20T06:17:30;0.70;78.50
74364;DHT22;62797;49.740;10.154;2022-12-20T06:19:55;0.70;77.80
74364;DHT22;62797;49.740;10.154;2022-12-20T06:22:21;0.80;77.40
74364;DHT22;62797;49.740;10.154;2022-12-20T06:24:47;0.80;77.20
74364;DHT22;62797;49.740;10.154;2022-12-20T06:27:12;0.70;77.50
74364;DHT22;62797;49.740;10.154;2022-12-20T06:29:38;0.80;77.50
74364;DHT22;62797;49.740;10.154;2022-12-20T06:32:04;0.80;77.60
74364;DHT22;62797;49.740;10.154;2022-12-20T06:34:30;0.80;77.40
74364;DHT22;62797;49.740;10.154;2022-12-20T06:36:56;0.80;77.10
74364;DHT22;62797;49.740;10.154;2022-12-20T06:39:21;0.70;76.90
74364;DHT22;62797;49.740;10.154;2022-12-20T06:41:47;0.70;77.50
74364;DHT22;62797;49.740;10.154;2022-12-20T06:44:12;0.70;77.50
74364;DHT22;62797;49.740;10.154;2022-12-20T06:46:38;0.70;76.80
74364;DHT22;62797;49.740;10.154;2022-12-20T06:49:03;0.60;77.40
74364;DHT22;62797;49.740;10.154;2022-12-20T06:51:29;0.60;77.20
74364;DHT22;62797;49.740;10.154;2022-12-20T06:53:54;0.60;77.90
74364;DHT22;62797;49.740;10.154;2022-12-20T06:56:20;0.60;77.50
74364;DHT22;62797;49.740;10.154;2022-12-20T06:58:45;0.60;77.10
74364;DHT22;62797;49.740;10.154;2022-12-20T07:01:11;0.60;77.60
74364;DHT22;62797;49.740;10.154;2022-12-20T07:03:37;0.50;77.40
74364;DHT22;62797;49.740;10.154;2022-12-20T07:06:03;0.50;77.90
74364;DHT22;62797;49.740;10.154;2022-12-20T07:08:28;0.60;78.00
74364;DHT22;62797;49.740;10.154;2022-12-20T07:10:54;0.60;78.20
74364;DHT22;62797;49.740;10.154;2022-12-20T07:13:20;0.60;77.70
74364;DHT22;62797;49.740;10.154;2022-12-20T07:15:46;0.60;77.90
74364;DHT22;62797;49.740;10.154;2022-12-20T07:18:11;0.70;78.20
74364;DHT22;62797;49.740;10.154;2022-12-20T07:20:37;0.70;78.00
74364;DHT22;62797;49.740;10.154;2022-12-20T07:23:03;0.70;77.70
74364;DHT22;62797;49.740;10.154;2022-12-20T07:25:28;0.70;78.00
74364;DHT22;62797;49.740;10.154;2022-12-20T07:27:54;0.70;78.00
74364;DHT22;62797;49.740;10.154;2022-12-20T07:30:20;0.70;78.10
74364;DHT22;62797;49.740;10.154;2022-12-20T07:32:46;0.70;78.40
74364;DHT22;62797;49.740;10.154;2022-12-20T07:35:12;0.80;78.30
74364;DHT22;62797;49.740;10.154;2022-12-20T07:37:38;0.80;78.10
74364;DHT22;62797;49.740;10.154;2022-12-20T07:40:05;0.80;77.90
74364;DHT22;62797;49.740;10.154;2022-12-20T07:42:30;0.90;78.10
74364;DHT22;62797;49.740;10.154;2022-12-20T07:44:56;0.90;77.90
74364;DHT22;62797;49.740;10.154;2022-12-20T07:47:22;0.90;77.60
74364;DHT22;62797;49.740;10.154;2022-12-20T07:49:47;0.90;77.80
74364;DHT22;62797;49.740;10.154;2022-12-20T07:52:18;0.90;77.90
74364;DHT22;62797;49.740;10.154;2022-12-20T07:54:50;0.90;78.20
74364;DHT22;62797;49.740;10.154;2022-12-20T07:57:31;0.90;78.10
74364;DHT22;62797;49.740;10.154;2022-12-20T07:59:59;0.90;78.30
74364;DHT22;62797;49.740;10.154;2022-12-20T08:02:30;0.90;78.10
74364;DHT22;62797;49.740;10.154;2022-12-20T08:04:57;1.00;78.70
74364;DHT22;62797;49.740;10.154;2022-12-20T08:07:23;1.00;79.30
74364;DHT22;62797;49.740;10.154;2022-12-20T08:09:49;1.10;78.70
74364;DHT22;62797;49.740;10.154;2022-12-20T08:12:16;1.10;78.50
74364;DHT22;62797;49.740;10.154;2022-12-20T08:14:43;1.20;78.30
74364;DHT22;62797;49.740;10.154;2022-12-20T08:17:09;1.20;78.00
74364;DHT22;62797;49.740;10.154;2022-12-20T08:19:36;1.20;78.00
74364;DHT22;62797;49.740;10.154;2022-12-20T08:22:01;1.20;78.00
74364;DHT22;62797;49.740;10.154;2022-12-20T08:24:27;1.30;78.40
74364;DHT22;62797;49.740;10.154;2022-12-20T08:26:53;1.30;78.20
74364;DHT22;62797;49.740;10.154;2022-12-20T08:29:19;1.30;77.60
74364;DHT22;62797;49.740;10.154;2022-12-20T08:31:45;1.30;77.70
74364;DHT22;62797;49.740;10.154;2022-12-20T08:34:11;1.30;77.90
74364;DHT22;62797;49.740;10.154;2022-12-20T08:36:36;1.30;78.00
74364;DHT22;62797;49.740;10.154;2022-12-20T08:39:03;1.30;78.00
74364;DHT22;62797;49.740;10.154;2022-12-20T08:41:29;1.40;78.20
74364;DHT22;62797;49.740;10.154;2022-12-20T08:43:54;1.50;78.20
74364;DHT22;62797;49.740;10.154;2022-12-20T08:46:20;1.50;78.10
74364;DHT22;62797;49.740;10.154;2022-12-20T08:48:45;1.60;78.10
74364;DHT22;62797;49.740;10.154;2022-12-20T08:51:11;1.60;78.20
74364;DHT22;62797;49.740;10.154;2022-12-20T08:53:37;1.70;77.90
74364;DHT22;62797;49.740;10.154;2022-12-20T08:56:11;1.60;77.00
74364;DHT22;62797;49.740;10.154;2022-12-20T08:58:38;1.70;77.80
74364;DHT22;62797;49.740;10.154;2022-12-20T09:01:05;1.70;77.90
74364;DHT22;62797;49.740;10.154;2022-12-20T09:03:34;1.80;77.60
74364;DHT22;62797;49.740;10.154;2022-12-20T09:05:59;1.80;77.70
74364;DHT22;62797;49.740;10.154;2022-12-20T09:08:25;1.80;78.00
74364;DHT22;62797;49.740;10.154;2022-12-20T09:10:51;1.90;78.00
74364;DHT22;62797;49.740;10.154;2022-12-20T09:13:18;1.90;77.60
74364;DHT22;62797;49.740;10.154;2022-12-20T09:15:43;1.90;77.50
74364;DHT22;62797;49.740;10.154;2022-12-20T09:18:10;1.90;77.50
74364;DHT22;62797;49.740;10.154;2022-12-20T09:20:40;2.00;77.70
74364;DHT22;62797;49.740;10.154;2022-12-20T09:23:06;2.00;77.50
74364;DHT22;62797;49.740;10.154;2022-12-20T09:25:32;2.00;77.10
74364;DHT22;62797;49.740;10.154;2022-12-20T09:27:57;2.10;77.50
74364;DHT22;62797;49.740;10.154;2022-12-20T09:30:23;2.20;78.00
74364;DHT22;62797;49.740;10.154;2022-12-20T09:32:49;2.30;78.50
74364;DHT22;62797;49.740;10.154;2022-12-20T09:35:15;2.30;77.80
74364;DHT22;62797;49.740;10.154;2022-12-20T09:37:40;2.40;77.50
74364;DHT22;62797;49.740;10.154;2022-12-20T09:40:08;2.50;77.40
74364;DHT22;62797;49.740;10.154;2022-12-20T09:42:38;2.50;77.70
74364;DHT22;62797;49.740;10.154;2022-12-20T09:45:07;2.60;77.30
74364;DHT22;62797;49.740;10.154;2022-12-20T09:47:34;2.60;75.70
74364;DHT22;62797;49.740;10.154;2022-12-20T09:50:02;2.50;76.50
74364;DHT22;62797;49.740;10.154;2022-12-20T09:55:22;2.30;76.00
74364;DHT22;62797;49.740;10.154;2022-12-20T10:00:45;2.30;76.20
74364;DHT22;62797;49.740;10.154;2022-12-20T10:03:32;2.30;75.90
74364;DHT22;62797;49.740;10.154;2022-12-20T10:08:57;2.50;77.40
74364;DHT22;62797;49.740;10.154;2022-12-20T10:17:32;2.80;76.70
74364;DHT22;62797;49.740;10.154;2022-12-20T10:23:06;2.90;75.40
74364;DHT22;62797;49.740;10.154;2022-12-20T10:25:33;2.90;75.40
74364;DHT22;62797;49.740;10.154;2022-12-20T10:28:18;2.90;75.30
74364;DHT22;62797;49.740;10.154;2022-12-20T10:30:44;3.00;75.00
74364;DHT22;62797;49.740;10.154;2022-12-20T10:33:20;3.00;74.90
74364;DHT22;62797;49.740;10.154;2022-12-20T10:35:47;3.10;75.90
74364;DHT22;62797;49.740;10.154;2022-12-20T10:38:14;3.10;75.10
74364;DHT22;62797;49.740;10.154;2022-12-20T10:40:46;3.00;74.50
74364;DHT22;62797;49.740;10.154;2022-12-20T10:43:20;3.10;75.70
74364;DHT22;62797;49.740;10.154;2022-12-20T10:46:01;3.20;76.60
74364;DHT22;62797;49.740;10.154;2022-12-20T10:48:31;3.20;76.30
74364;DHT22;62797;49.740;10.154;2022-12-20T10:51:20;3.20;76.20
74364;DHT22;62797;49.740;10.154;2022-12-20T10:54:00;3.20;76.30
74364;DHT22;62797;49.740;10.154;2022-12-20T10:56:34;3.20;75.40
74364;DHT22;62797;49.740;10.154;2022-12-20T10:59:28;3.20;75.70
74364;DHT22;62797;49.740;10.154;2022-12-20T11:01:54;3.20;75.20
74364;DHT22;62797;49.740;10.154;2022-12-20T11:04:34;3.10;75.60
74364;DHT22;62797;49.740;10.154;2022-12-20T11:07:03;3.10;75.40
74364;DHT22;62797;49.740;10.154;2022-12-20T11:09:55;3.10;75.50
74364;DHT22;62797;49.740;10.154;2022-12-20T11:12:21;3.20;76.50
74364;DHT22;62797;49.740;10.154;2022-12-20T11:14:48;3.20;76.40
74364;DHT22;62797;49.740;10.154;2022-12-20T11:17:37;3.20;76.50
74364;DHT22;62797;49.740;10.154;2022-12-20T11:20:59;3.30;77.20
74364;DHT22;62797;49.740;10.154;2022-12-20T11:26:31;3.40;77.40
74364;DHT22;62797;49.740;10.154;2022-12-20T11:37:03;3.50;76.20
74364;DHT22;62797;49.740;10.154;2022-12-20T11:55:51;3.10;74.70
74364;DHT22;62797;49.740;10.154;2022-12-20T11:58:28;3.00;75.50
74364;DHT22;62797;49.740;10.154;2022-12-20T12:01:14;3.10;76.40
74364;DHT22;62797;49.740;10.154;2022-12-20T12:03:55;3.20;76.40
74364;DHT22;62797;49.740;10.154;2022-12-20T12:06:29;3.20;76.80
74364;DHT22;62797;49.740;10.154;2022-12-20T12:11:28;3.20;76.30
74364;DHT22;62797;49.740;10.154;2022-12-20T12:13:56;3.20;76.60
74364;DHT22;62797;49.740;10.154;2022-12-20T12:16:27;3.30;76.40
74364;DHT22;62797;49.740;10.154;2022-12-20T12:18:53;3.30;76.90
74364;DHT22;62797;49.740;10.154;2022-12-20T12:21:23;3.40;76.70
74364;DHT22;62797;49.740;10.154;2022-12-20T12:24:25;3.40;76.60
74364;DHT22;62797;49.740;10.154;2022-12-20T12:26:52;3.30;75.90
74364;DHT22;62797;49.740;10.154;2022-12-20T12:29:19;3.30;76.80
74364;DHT22;62797;49.740;10.154;2022-12-20T12:32:01;3.30;76.50
74364;DHT22;62797;49.740;10.154;2022-12-20T12:35:00;3.40;76.90
74364;DHT22;62797;49.740;10.154;2022-12-20T12:38:03;3.50;77.10
74364;DHT22;62797;49.740;10.154;2022-12-20T12:46:22;3.60;77.00
74364;DHT22;62797;49.740;10.154;2022-12-20T12:48:58;3.70;77.10
74364;DHT22;62797;49.740;10.154;2022-12-20T12:51:31;3.70;76.70
74364;DHT22;62797;49.740;10.154;2022-12-20T12:54:21;3.60;76.40
74364;DHT22;62797;49.740;10.154;2022-12-20T12:56:49;3.70;76.10
74364;DHT22;62797;49.740;10.154;2022-12-20T13:01:52;3.60;76.00
74364;DHT22;62797;49.740;10.154;2022-12-20T13:11:47;3.60;76.10
74364;DHT22;62797;49.740;10.154;2022-12-20T13:16:42;3.60;75.80
74364;DHT22;62797;49.740;10.154;2022-12-20T13:19:34;3.60;76.50
74364;DHT22;62797;49.740;10.154;2022-12-20T13:22:19;3.70;75.60
74364;DHT22;62797;49.740;10.154;2022-12-20T13:27:29;3.60;75.00
74364;DHT22;62797;49.740;10.154;2022-12-20T13:32:57;3.70;75.30
74364;DHT22;62797;49.740;10.154;2022-12-20T13:49:31;3.50;75.60
74364;DHT22;62797;49.740;10.154;2022-12-20T13:54:40;3.50;75.10
74364;DHT22;62797;49.740;10.154;2022-12-20T13:57:06;3.40;75.30
74364;DHT22;62797;49.740;10.154;2022-12-20T13:59:32;3.40;75.00
74364;DHT22;62797;49.740;10.154;2022-12-20T14:02:00;3.40;75.40
74364;DHT22;62797;49.740;10.154;2022-12-20T14:04:40;3.50;75.50
74364;DHT22;62797;49.740;10.154;2022-12-20T14:07:08;3.50;76.30
74364;DHT22;62797;49.740;10.154;2022-12-20T14:09:37;3.50;75.80
74364;DHT22;62797;49.740;10.154;2022-12-20T14:14:30;3.40;75.50
74364;DHT22;62797;49.740;10.154;2022-12-20T14:17:18;3.40;75.60
74364;DHT22;62797;49.740;10.154;2022-12-20T14:20:06;3.50;75.60
74364;DHT22;62797;49.740;10.154;2022-12-20T14:22:33;3.50;75.20
74364;DHT22;62797;49.740;10.154;2022-12-20T14:25:00;3.40;73.90
74364;DHT22;62797;49.740;10.154;2022-12-20T14:27:28;3.40;74.80
74364;DHT22;62797;49.740;10.154;2022-12-20T14:29:57;3.40;75.50
74364;DHT22;62797;49.740;10.154;2022-12-20T14:32:23;3.40;74.90
74364;DHT22;62797;49.740;10.154;2022-12-20T14:34:49;3.40;74.60
74364;DHT22;62797;49.740;10.154;2022-12-20T14:37:25;3.40;74.40
74364;DHT22;62797;49.740;10.154;2022-12-20T14:39:55;3.40;74.90
74364;DHT22;62797;49.740;10.154;2022-12-20T14:42:22;3.40;74.70
74364;DHT22;62797;49.740;10.154;2022-12-20T14:45:02;3.30;75.20
74364;DHT22;62797;49.740;10.154;2022-12-20T14:47:27;3.40;74.90
74364;DHT22;62797;49.740;10.154;2022-12-20T14:50:04;3.40;75.10
74364;DHT22;62797;49.740;10.154;2022-12-20T14:52:36;3.40;75.10
74364;DHT22;62797;49.740;10.154;2022-12-20T14:55:18;3.30;75.20
74364;DHT22;62797;49.740;10.154;2022-12-20T14:57:48;3.20;75.00
74364;DHT22;62797;49.740;10.154;2022-12-20T15:00:28;3.10;75.10
74364;DHT22;62797;49.740;10.154;2022-12-20T15:03:01;3.10;75.80
74364;DHT22;62797;49.740;10.154;2022-12-20T15:08:11;3.10;76.00
74364;DHT22;62797;49.740;10.154;2022-12-20T15:10:37;3.20;75.70
74364;DHT22;62797;49.740;10.154;2022-12-20T15:13:03;3.10;75.90
74364;DHT22;62797;49.740;10.154;2022-12-20T15:15:29;3.10;74.80
74364;DHT22;62797;49.740;10.154;2022-12-20T15:17:54;3.00;75.20
74364;DHT22;62797;49.740;10.154;2022-12-20T15:20:20;3.00;75.20
74364;DHT22;62797;49.740;10.154;2022-12-20T15:22:45;3.00;75.30
74364;DHT22;62797;49.740;10.154;2022-12-20T15:25:14;3.00;75.80
74364;DHT22;62797;49.740;10.154;2022-12-20T15:27:41;3.00;75.80
74364;DHT22;62797;49.740;10.154;2022-12-20T15:30:11;2.90;75.80
74364;DHT22;62797;49.740;10.154;2022-12-20T15:32:38;2.90;76.50
74364;DHT22;62797;49.740;10.154;2022-12-20T15:35:05;2.90;75.90
74364;DHT22;62797;49.740;10.154;2022-12-20T15:37:36;2.80;76.50
74364;DHT22;62797;49.740;10.154;2022-12-20T15:40:02;2.80;76.20
74364;DHT22;62797;49.740;10.154;2022-12-20T15:42:28;2.80;76.40
74364;DHT22;62797;49.740;10.154;2022-12-20T15:44:53;2.70;75.90
74364;DHT22;62797;49.740;10.154;2022-12-20T15:47:19;2.70;76.00
74364;DHT22;62797;49.740;10.154;2022-12-20T15:49:44;2.70;76.60
74364;DHT22;62797;49.740;10.154;2022-12-20T15:52:18;2.70;76.70
74364;DHT22;62797;49.740;10.154;2022-12-20T15:54:44;2.70;76.40
74364;DHT22;62797;49.740;10.154;2022-12-20T15:57:12;2.70;76.50
74364;DHT22;62797;49.740;10.154;2022-12-20T15:59:38;2.60;75.70
74364;DHT22;62797;49.740;10.154;2022-12-20T16:02:20;2.60;76.70
74364;DHT22;62797;49.740;10.154;2022-12-20T16:04:46;2.60;76.70
74364;DHT22;62797;49.740;10.154;2022-12-20T16:07:12;2.50;76.20
74364;DHT22;62797;49.740;10.154;2022-12-20T16:09:38;2.50;75.30
74364;DHT22;62797;49.740;10.154;2022-12-20T16:12:08;2.30;75.20
74364;DHT22;62797;49.740;10.154;2022-12-20T16:14:36;2.10;74.50
74364;DHT22;62797;49.740;10.154;2022-12-20T16:17:02;2.00;74.90
74364;DHT22;62797;49.740;10.154;2022-12-20T16:19:27;1.90;75.60
74364;DHT22;62797;49.740;10.154;2022-12-20T16:21:53;1.80;75.70
74364;DHT22;62797;49.740;10.154;2022-12-20T16:24:19;1.70;76.20
74364;DHT22;62797;49.740;10.154;2022-12-20T16:26:46;1.70;76.20
74364;DHT22;62797;49.740;10.154;2022-12-20T16:29:12;1.70;77.20
74364;DHT22;62797;49.740;10.154;2022-12-20T16:31:39;1.70;77.70
74364;DHT22;62797;49.740;10.154;2022-12-20T16:34:12;1.80;78.00
74364;DHT22;62797;49.740;10.154;2022-12-20T16:36:38;1.80;77.60
74364;DHT22;62797;49.740;10.154;2022-12-20T16:39:04;1.80;77.30
74364;DHT22;62797;49.740;10.154;2022-12-20T16:41:31;1.80;77.70
74364;DHT22;62797;49.740;10.154;2022-12-20T16:43:59;1.90;77.80
74364;DHT22;62797;49.740;10.154;2022-12-20T16:46:27;1.90;77.70
74364;DHT22;62797;49.740;10.154;2022-12-20T16:48:54;1.90;78.00
74364;DHT22;62797;49.740;10.154;2022-12-20T16:51:26;1.90;77.80
74364;DHT22;62797;49.740;10.154;2022-12-20T16:53:57;1.80;77.60
74364;DHT22;62797;49.740;10.154;2022-12-20T16:56:25;1.80;78.20
74364;DHT22;62797;49.740;10.154;2022-12-20T16:58:51;1.80;78.30
74364;DHT22;62797;49.740;10.154;2022-12-20T17:01:19;1.90;78.40
74364;DHT22;62797;49.740;10.154;2022-12-20T17:03:45;1.90;78.20
74364;DHT22;62797;49.740;10.154;2022-12-20T17:06:13;1.90;77.50
74364;DHT22;62797;49.740;10.154;2022-12-20T17:08:39;1.90;77.70
74364;DHT22;62797;49.740;10.154;2022-12-20T17:11:23;1.80;78.10
74364;DHT22;62797;49.740;10.154;2022-12-20T17:13:51;1.80;77.60
74364;DHT22;62797;49.740;10.154;2022-12-20T17:16:17;1.80;77.40
74364;DHT22;62797;49.740;10.154;2022-12-20T17:18:45;1.80;77.70
74364;DHT22;62797;49.740;10.154;2022-12-20T17:21:37;1.80;77.70
74364;DHT22;62797;49.740;10.154;2022-12-20T17:24:04;1.80;77.30
74364;DHT22;62797;49.740;10.154;2022-12-20T17:26:32;1.80;76.50
74364;DHT22;62797;49.740;10.154;2022-12-20T17:28:57;1.70;77.20
74364;DHT22;62797;49.740;10.154;2022-12-20T17:31:35;1.70;77.60